This is the latest recevied weather packets stored in our database for station/object SP9UVG-13. If no packets are shown the sender has not sent any weather packets the latest 10 day(s).
| Time | Temp. | Humidity | Pressure | Rain* | Wind** | Luminosity | Snow |
|---|---|---|---|---|---|---|---|
| 1787482875 | 26.11° C | 37% | 1006.5 hPa | 0 mm | - | - | - |
| 1787482335 | 26.11° C | 36% | 1006.4 hPa | 0 mm | - | - | - |
| 1787481794 | 30.56° C | 33% | 1006.5 hPa | 0 mm | - | - | - |
| 1787481254 | 27.78° C | 40% | 1006.5 hPa | 0 mm | - | - | - |
| 1787480713 | 24.44° C | 41% | 1006.5 hPa | 0 mm | - | - | - |
| 1787480172 | 23.33° C | 42% | 1006.6 hPa | 0 mm | - | - | - |
| 1787479632 | 25° C | 39% | 1006.5 hPa | 0 mm | - | - | - |
| 1787479091 | 27.22° C | 36% | 1006.6 hPa | 0 mm | - | - | - |
| 1787478692 | 32.22° C | 31% | 1006.7 hPa | 0 mm | - | - | - |
| 1787478551 | 32.22° C | 31% | 1006.7 hPa | 0 mm | - | - | - |
| 1787478010 | 31.67° C | 32% | 1006.6 hPa | 0 mm | - | - | - |
| 1787477532 | 32.78° C | 32% | 1006.6 hPa | 0 mm | - | - | - |
| 1787476929 | 31.67° C | 34% | 1006.6 hPa | 0 mm | - | - | - |
| 1787476389 | 31.67° C | 32% | 1006.6 hPa | 0 mm | - | - | - |
| 1787475848 | 33.33° C | 30% | 1006.6 hPa | 0 mm | - | - | - |
| 1787475308 | 34.44° C | 30% | 1006.7 hPa | 0 mm | - | - | - |
| 1787474767 | 34.44° C | 30% | 1006.7 hPa | 0 mm | - | - | - |
| 1787474227 | 33.89° C | 31% | 1006.8 hPa | 0 mm | - | - | - |
| 1787473146 | 33.89° C | 31% | 1006.6 hPa | 0 mm | - | - | - |
| 1787472605 | 33.33° C | 31% | 1006.7 hPa | 0 mm | - | - | - |
| 1787472065 | 33.89° C | 31% | 1006.5 hPa | 0 mm | - | - | - |
| 1787471524 | 33.33° C | 33% | 1006.6 hPa | 0 mm | - | - | - |
| 1787470443 | 33.89° C | 33% | 1006.5 hPa | 0 mm | - | - | - |
| 1787469902 | 34.44° C | 34% | 1006.4 hPa | 0 mm | - | - | - |
| 1787469362 | 34.44° C | 34% | 1006.4 hPa | 0 mm | - | - | - |
* Rain latest hour (hover to see other rain measurements)
** Current wind speed in m/s (hover to see current wind gust speed)